KBNW

Boone Municipal Airport

Boone, Iowa, USA
METAR KBNW 212315Z AUTO 35011KT 8SM CLR 21/15 A3013 RMK AO2
Observed Flight Rules
Aug-21 @ 23:15 UTC (30 minutes ago) Visual Flight Rules
Wind Visibility Clouds
350° at 11 knots 8 miles
  • Clear skies
Temperatures Readings
Current 21°C / 70°F
Dewpoint 15°C / 59°F
Humidity 69%
Altimeter 30.13" Hg
Pressure 1020 hPa
Elevation 354
METAR KBNW 212315Z AUTO 35011KT 8SM CLR 21/15 A3013 RMK AO2
Observed Flight Rules
Aug-21 @ 23:15 UTC
(30 minutes ago)
VFR
Wind Visibility
350° at 11 knots 8 miles
Clouds
  • Clear skies
Temperature Dewpoint
21°C / 70°F 15°C / 59°F
Humidity Altimeter Pressure
69% 30.13" Hg 1020 hPa